createdAt,value
2022-09-12T00:00:08.333Z,14.97
2022-09-12T00:02:34.891Z,14.97
2022-09-12T00:05:01.428Z,14.97
2022-09-12T00:07:28.064Z,14.96
2022-09-12T00:09:54.705Z,14.91
2022-09-12T00:12:21.263Z,14.88
2022-09-12T00:14:47.805Z,14.86
2022-09-12T00:17:14.380Z,14.83
2022-09-12T00:19:40.885Z,14.83
2022-09-12T00:22:07.800Z,14.84
2022-09-12T00:24:34.448Z,14.83
2022-09-12T00:27:01.021Z,14.82
2022-09-12T00:29:27.611Z,14.79
2022-09-12T00:31:54.149Z,14.78
2022-09-12T00:34:20.701Z,14.73
2022-09-12T00:36:47.381Z,14.70
2022-09-12T00:39:16.942Z,14.69
2022-09-12T00:41:44.728Z,14.69
2022-09-12T00:44:12.275Z,14.66
2022-09-12T00:46:48.100Z,14.64
2022-09-12T00:49:15.586Z,14.62
2022-09-12T00:51:47.229Z,14.60
2022-09-12T00:54:19.330Z,14.59
2022-09-12T00:56:49.096Z,14.55
2022-09-12T00:59:21.710Z,14.52
2022-09-12T01:01:51.191Z,14.48
2022-09-12T01:04:22.143Z,14.45
2022-09-12T01:06:51.894Z,14.42
2022-09-12T01:09:21.815Z,14.40
2022-09-12T01:11:50.480Z,14.36
2022-09-12T01:14:18.089Z,14.35
2022-09-12T01:16:46.371Z,14.31
2022-09-12T01:19:40.652Z,14.31
2022-09-12T01:22:07.119Z,14.32
2022-09-12T01:25:07.783Z,14.30
2022-09-12T01:27:49.149Z,14.30
2022-09-12T01:30:24.093Z,14.28
2022-09-12T01:33:10.172Z,14.24
2022-09-12T01:35:56.743Z,14.18
2022-09-12T01:38:31.449Z,14.16
2022-09-12T01:41:09.056Z,14.13
2022-09-12T01:43:56.208Z,14.11
2022-09-12T01:46:49.792Z,14.08
2022-09-12T01:49:23.176Z,14.05
2022-09-12T01:52:20.548Z,14.05
2022-09-12T01:54:53.400Z,14.04
2022-09-12T01:57:39.302Z,14.02
2022-09-12T02:00:10.283Z,14.00
2022-09-12T02:02:39.488Z,13.98
2022-09-12T02:05:10.926Z,13.97
2022-09-12T02:07:44.034Z,13.95
2022-09-12T02:10:19.668Z,13.96
2022-09-12T02:12:52.005Z,13.93
2022-09-12T02:15:23.953Z,13.93
2022-09-12T02:17:52.493Z,13.93
2022-09-12T02:20:37.471Z,13.91
2022-09-12T02:23:15.863Z,13.92
2022-09-12T02:25:47.167Z,13.90
2022-09-12T02:28:27.364Z,13.87
2022-09-12T02:31:23.565Z,13.84
2022-09-12T02:33:50.068Z,13.81
2022-09-12T02:36:28.782Z,13.79
2022-09-12T02:38:55.752Z,13.76
2022-09-12T02:41:23.257Z,13.77
2022-09-12T02:43:51.871Z,13.78
2022-09-12T02:46:23.563Z,13.79
2022-09-12T02:48:50.169Z,13.79
2022-09-12T02:51:20.389Z,13.77
2022-09-12T02:53:49.644Z,13.77
2022-09-12T02:56:24.153Z,13.77
2022-09-12T02:58:51.411Z,13.75
2022-09-12T03:01:40.354Z,13.73
2022-09-12T03:04:22.050Z,13.72
2022-09-12T03:07:21.806Z,13.68
2022-09-12T03:10:14.991Z,13.64
2022-09-12T03:13:02.079Z,13.62
2022-09-12T03:15:54.646Z,13.62
2022-09-12T03:18:35.744Z,13.63
2022-09-12T03:21:17.512Z,13.64
2022-09-12T03:24:04.404Z,13.65
2022-09-12T03:26:35.180Z,13.64
2022-09-12T03:29:06.482Z,13.63
2022-09-12T03:31:33.429Z,13.62
2022-09-12T03:34:00.651Z,13.60
2022-09-12T03:36:29.571Z,13.59
2022-09-12T03:38:56.660Z,13.58
2022-09-12T03:41:23.237Z,13.56
2022-09-12T03:43:49.918Z,13.53
2022-09-12T03:46:16.630Z,13.52
2022-09-12T03:48:43.276Z,13.52
2022-09-12T03:51:10.764Z,13.52
2022-09-12T03:54:08.555Z,13.50
2022-09-12T03:56:26.178Z,13.48
2022-09-12T03:58:52.915Z,13.47
2022-09-12T04:01:20.168Z,13.48
2022-09-12T04:03:52.523Z,13.49
2022-09-12T04:06:23.001Z,13.49
2022-09-12T04:08:52.001Z,13.47
2022-09-12T04:11:22.485Z,13.45
2022-09-12T04:13:49.271Z,13.42
2022-09-12T04:16:16.806Z,13.43
2022-09-12T04:18:44.091Z,13.45
2022-09-12T04:21:15.685Z,13.46
2022-09-12T04:23:43.023Z,13.43
2022-09-12T04:26:12.972Z,13.42
2022-09-12T04:28:40.128Z,13.42
2022-09-12T04:31:13.927Z,13.40
2022-09-12T04:33:40.569Z,13.40
2022-09-12T04:36:10.764Z,13.41
2022-09-12T04:38:38.607Z,13.39
2022-09-12T04:41:14.246Z,13.40
2022-09-12T04:43:41.172Z,13.43
2022-09-12T04:46:09.286Z,13.43
2022-09-12T04:48:39.002Z,13.44
2022-09-12T04:51:09.689Z,13.46
2022-09-12T04:53:37.197Z,13.45
2022-09-12T04:56:06.979Z,13.46
2022-09-12T04:58:34.323Z,13.45
2022-09-12T05:01:21.246Z,13.46
2022-09-12T05:03:48.837Z,13.45
2022-09-12T05:06:19.008Z,13.47
2022-09-12T05:08:46.144Z,13.50
2022-09-12T05:11:16.297Z,13.50
2022-09-12T05:13:43.778Z,13.54
2022-09-12T05:16:12.690Z,13.55
2022-09-12T05:18:39.460Z,13.57
2022-09-12T05:21:09.317Z,13.58
2022-09-12T05:23:35.962Z,13.58
2022-09-12T05:26:04.712Z,13.60
2022-09-12T05:28:34.416Z,13.61
2022-09-12T05:31:11.910Z,13.61
2022-09-12T05:34:11.837Z,13.63
2022-09-12T05:36:38.700Z,13.61
2022-09-12T05:39:05.348Z,13.64
2022-09-12T05:41:33.837Z,13.65
2022-09-12T05:44:03.156Z,13.65
2022-09-12T05:46:42.685Z,13.67
2022-09-12T05:49:36.308Z,13.68
2022-09-12T05:53:25.115Z,13.67
2022-09-12T05:55:17.241Z,13.67
2022-09-12T06:00:55.474Z,13.73
2022-09-12T06:13:59.500Z,13.69
2022-09-12T06:29:21.178Z,13.80
2022-09-12T06:31:47.691Z,13.79
2022-09-12T06:39:48.878Z,13.88
2022-09-12T06:45:00.835Z,14.03
2022-09-12T06:47:28.323Z,14.06
2022-09-12T06:50:28.113Z,14.08
2022-09-12T06:52:45.428Z,14.11
2022-09-12T06:55:48.253Z,14.25
2022-09-12T07:16:52.636Z,15.41
2022-09-12T07:19:19.238Z,15.49
2022-09-12T07:21:45.786Z,15.51
2022-09-12T07:24:12.253Z,15.49
2022-09-12T07:26:41.536Z,15.49
2022-09-12T07:32:02.058Z,15.67
2022-09-12T07:34:28.541Z,15.81
2022-09-12T07:36:54.978Z,15.91
2022-09-12T07:39:21.380Z,15.95
2022-09-12T07:41:48.199Z,16.02
2022-09-12T07:44:14.790Z,16.06
2022-09-12T07:46:41.250Z,16.11
2022-09-12T07:49:08.528Z,16.16
2022-09-12T07:51:35.152Z,16.23
2022-09-12T07:54:01.592Z,16.32
2022-09-12T07:56:31.073Z,16.37
2022-09-12T07:58:58.923Z,16.45
2022-09-12T08:01:25.748Z,16.46
2022-09-12T08:03:56.928Z,16.44
2022-09-12T08:06:24.340Z,16.43
2022-09-12T08:08:52.560Z,16.49
2022-09-12T08:11:21.098Z,16.55
2022-09-12T08:13:52.953Z,16.62
2022-09-12T08:16:23.597Z,16.60
2022-09-12T08:18:51.392Z,16.65
2022-09-12T08:21:21.332Z,16.70
2022-09-12T08:23:52.667Z,16.74
2022-09-12T08:26:19.480Z,16.78
2022-09-12T08:28:46.327Z,16.83
2022-09-12T08:31:15.426Z,16.88
2022-09-12T08:33:42.275Z,16.91
2022-09-12T08:36:12.350Z,16.94
2022-09-12T08:38:41.882Z,16.98
2022-09-12T08:41:13.401Z,17.01
2022-09-12T08:43:56.958Z,17.06
2022-09-12T08:46:36.089Z,17.10
2022-09-12T08:49:04.320Z,17.12
2022-09-12T08:51:34.685Z,17.17
2022-09-12T08:54:03.723Z,17.21
2022-09-12T08:56:36.198Z,17.24
2022-09-12T08:59:03.225Z,17.29
2022-09-12T09:01:32.796Z,17.31
2022-09-12T09:04:16.088Z,17.36
2022-09-12T09:07:04.976Z,17.41
2022-09-12T09:09:54.767Z,17.45
2022-09-12T09:12:27.190Z,17.48
2022-09-12T09:15:22.070Z,17.54
2022-09-12T09:22:13.489Z,17.65
2022-09-12T09:24:51.892Z,17.75
2022-09-12T09:30:22.964Z,17.92
2022-09-12T09:33:38.938Z,17.96
2022-09-12T09:37:01.423Z,17.99
2022-09-12T09:39:39.673Z,18.05
2022-09-12T09:42:23.123Z,18.11
2022-09-12T09:44:52.927Z,18.14
2022-09-12T09:47:19.894Z,18.19
2022-09-12T09:49:47.646Z,18.26
2022-09-12T09:52:39.950Z,18.33
2022-09-12T09:55:18.178Z,18.41
2022-09-12T10:01:01.705Z,18.51
2022-09-12T10:03:32.690Z,18.54
2022-09-12T10:10:15.590Z,18.67
2022-09-12T10:12:42.291Z,18.77
2022-09-12T10:15:28.507Z,18.88
2022-09-12T10:17:56.711Z,18.92
2022-09-12T10:20:33.368Z,18.99
2022-09-12T10:23:48.566Z,19.07
2022-09-12T10:26:19.560Z,19.11
2022-09-12T10:28:54.093Z,19.22
2022-09-12T10:31:29.555Z,19.27
2022-09-12T10:34:22.361Z,19.34
2022-09-12T10:40:56.749Z,19.38
2022-09-12T10:43:54.277Z,19.42
2022-09-12T10:47:03.458Z,19.49
2022-09-12T10:56:50.722Z,19.76
2022-09-12T11:03:41.919Z,19.89
2022-09-12T11:06:29.095Z,19.96
2022-09-12T11:09:06.139Z,20.03
2022-09-12T11:12:02.244Z,20.13
2022-09-12T11:15:31.640Z,20.19
2022-09-12T11:18:24.759Z,20.27
2022-09-12T11:21:09.825Z,20.32
2022-09-12T11:24:07.649Z,20.43
2022-09-12T11:30:50.801Z,20.58
2022-09-12T11:34:05.420Z,20.57
2022-09-12T11:37:18.267Z,20.59
2022-09-12T11:43:54.499Z,20.60
2022-09-12T11:50:00.152Z,20.69
2022-09-12T11:52:59.463Z,20.71
2022-09-12T12:02:14.625Z,20.75
2022-09-12T12:06:06.787Z,20.79
2022-09-12T12:09:15.248Z,20.90
2022-09-12T12:15:59.140Z,20.97
2022-09-12T12:32:31.359Z,21.18
2022-09-12T12:35:41.347Z,21.19
2022-09-12T12:38:29.597Z,21.15
2022-09-12T12:41:17.828Z,21.11
2022-09-12T12:43:45.796Z,21.11
2022-09-12T12:46:14.716Z,21.13
2022-09-12T12:49:20.038Z,21.20
2022-09-12T12:51:57.634Z,21.25
2022-09-12T12:54:31.360Z,21.26
2022-09-12T12:57:04.879Z,21.32
2022-09-12T12:59:32.184Z,21.34
2022-09-12T13:02:00.029Z,21.36
2022-09-12T13:04:30.607Z,21.38
2022-09-12T13:07:07.189Z,21.41
2022-09-12T13:09:39.762Z,21.44
2022-09-12T13:12:10.286Z,21.51
2022-09-12T13:14:51.657Z,21.50
2022-09-12T13:17:22.729Z,21.50
2022-09-12T13:20:10.604Z,21.57
2022-09-12T13:22:42.906Z,21.60
2022-09-12T13:25:25.151Z,21.62
2022-09-12T13:28:04.065Z,21.63
2022-09-12T13:30:33.633Z,21.67
2022-09-12T13:33:10.294Z,21.71
2022-09-12T13:35:41.504Z,21.74
2022-09-12T13:38:13.209Z,21.77
2022-09-12T13:40:57.300Z,21.78
2022-09-12T13:43:40.681Z,21.74
2022-09-12T13:46:09.586Z,21.73
2022-09-12T13:48:36.317Z,21.72
2022-09-12T13:51:06.024Z,21.74
2022-09-12T13:53:47.242Z,21.75
2022-09-12T13:56:17.915Z,21.73
2022-09-12T13:58:56.910Z,21.76
2022-09-12T14:07:55.415Z,22.07
2022-09-12T14:17:37.206Z,22.20
2022-09-12T14:21:10.475Z,22.20
2022-09-12T14:51:35.235Z,22.35
2022-09-12T14:54:02.756Z,22.41
2022-09-12T14:56:55.220Z,22.42
2022-09-12T15:00:14.578Z,22.36
2022-09-12T15:05:27.954Z,22.28
2022-09-12T15:07:56.155Z,22.25
2022-09-12T15:10:33.903Z,22.25
2022-09-12T15:13:15.308Z,22.22
2022-09-12T15:15:47.037Z,22.19
2022-09-12T15:18:15.919Z,22.18
2022-09-12T15:20:44.684Z,22.19
2022-09-12T15:23:20.712Z,22.17
2022-09-12T15:25:47.754Z,22.11
2022-09-12T15:28:19.790Z,22.06
2022-09-12T15:30:50.026Z,22.03
2022-09-12T15:33:18.939Z,22.04
2022-09-12T15:35:45.956Z,22.05
2022-09-12T15:38:12.897Z,22.05
2022-09-12T15:40:40.847Z,22.04
2022-09-12T15:43:07.425Z,22.02
2022-09-12T15:45:35.458Z,22.01
2022-09-12T15:48:03.338Z,21.97
2022-09-12T15:50:30.600Z,21.97
2022-09-12T15:52:57.670Z,22.01
2022-09-12T15:55:28.709Z,22.05
2022-09-12T15:57:55.742Z,22.08
2022-09-12T16:00:22.754Z,22.07
2022-09-12T16:02:54.147Z,22.08
2022-09-12T16:05:25.153Z,22.07
2022-09-12T16:10:36.730Z,21.97
2022-09-12T16:13:04.613Z,21.92
2022-09-12T16:15:31.195Z,21.92
2022-09-12T16:17:57.724Z,21.89
2022-09-12T16:20:24.439Z,21.87
2022-09-12T16:22:50.971Z,21.83
2022-09-12T16:25:18.186Z,21.77
2022-09-12T16:27:45.117Z,21.73
2022-09-12T16:30:13.090Z,21.69
2022-09-12T16:32:39.593Z,21.65
2022-09-12T16:35:08.846Z,21.62
2022-09-12T16:37:35.490Z,21.58
2022-09-12T16:40:04.675Z,21.53
2022-09-12T16:42:31.291Z,21.50
2022-09-12T16:44:57.969Z,21.46
2022-09-12T16:47:24.497Z,21.42
2022-09-12T16:49:51.358Z,21.40
2022-09-12T16:52:19.319Z,21.36
2022-09-12T16:54:46.952Z,21.30
2022-09-12T16:57:13.487Z,21.26
2022-09-12T16:59:39.979Z,21.23
2022-09-12T17:02:07.547Z,21.17
2022-09-12T17:04:34.221Z,21.11
2022-09-12T17:07:00.802Z,21.07
2022-09-12T17:09:28.189Z,21.02
2022-09-12T17:11:55.736Z,20.97
2022-09-12T17:14:22.891Z,20.90
2022-09-12T17:16:51.981Z,20.84
2022-09-12T17:19:22.165Z,20.79
2022-09-12T17:36:05.790Z,20.43
2022-09-12T17:38:34.774Z,20.40
2022-09-12T17:41:23.619Z,20.38
2022-09-12T17:44:16.927Z,20.32
2022-09-12T17:46:43.329Z,20.29
2022-09-12T17:49:17.387Z,20.25
2022-09-12T17:51:45.297Z,20.21
2022-09-12T17:54:16.109Z,20.16
2022-09-12T17:56:44.509Z,20.12
2022-09-12T18:02:19.290Z,20.03
2022-09-12T18:04:46.996Z,19.98
2022-09-12T18:07:18.309Z,19.92
2022-09-12T18:09:47.956Z,19.88
2022-09-12T18:12:15.790Z,19.82
2022-09-12T18:14:42.799Z,19.77
2022-09-12T18:17:32.464Z,19.72
2022-09-12T18:23:05.773Z,19.65
2022-09-12T18:25:33.905Z,19.62
2022-09-12T18:28:00.617Z,19.60
2022-09-12T18:30:48.779Z,19.55
2022-09-12T18:33:23.893Z,19.50
2022-09-12T18:36:27.158Z,19.44
2022-09-12T18:38:45.023Z,19.40
2022-09-12T18:41:37.495Z,19.36
2022-09-12T18:44:05.227Z,19.31
2022-09-12T18:46:35.414Z,19.26
2022-09-12T18:49:07.847Z,19.24
2022-09-12T18:51:36.623Z,19.21
2022-09-12T18:54:06.407Z,19.16
2022-09-12T18:56:37.632Z,19.15
2022-09-12T18:59:06.273Z,19.08
2022-09-12T19:01:35.496Z,19.03
2022-09-12T19:04:05.088Z,18.99
2022-09-12T19:06:35.441Z,18.95
2022-09-12T19:09:07.332Z,18.93
2022-09-12T19:11:35.988Z,18.90
2022-09-12T19:14:03.067Z,18.88
2022-09-12T19:16:29.801Z,18.84
2022-09-12T19:18:57.235Z,18.81
2022-09-12T19:21:27.029Z,18.77
2022-09-12T19:23:57.219Z,18.74
2022-09-12T19:26:24.267Z,18.71
2022-09-12T19:28:50.955Z,18.67
2022-09-12T19:31:20.005Z,18.61
2022-09-12T19:36:47.114Z,18.57
2022-09-12T19:39:15.497Z,18.54
2022-09-12T19:41:43.855Z,18.50
2022-09-12T19:44:11.843Z,18.49
2022-09-12T19:46:38.926Z,18.49
2022-09-12T19:49:05.939Z,18.48
2022-09-12T19:51:33.911Z,18.51
2022-09-12T20:30:10.276Z,18.35
2022-09-12T20:37:25.842Z,18.31
2022-09-12T20:40:44.653Z,18.28
2022-09-12T20:48:00.228Z,18.21
2022-09-12T20:57:45.866Z,18.13
2022-09-12T21:02:32.395Z,18.13
2022-09-12T21:24:12.329Z,18.07
2022-09-12T21:27:16.459Z,18.07
2022-09-12T21:30:10.758Z,18.05
2022-09-12T21:35:24.922Z,18.01
2022-09-12T21:49:48.314Z,17.99
2022-09-12T22:04:55.916Z,17.94
2022-09-12T22:07:54.397Z,17.95
2022-09-12T23:23:15.618Z,17.83
2022-09-12T23:56:53.262Z,17.69
